createdAt,value
2023-01-25T00:01:33.813Z,101239.25
2023-01-25T00:04:07.518Z,101232.63
2023-01-25T00:06:39.654Z,101222.69
2023-01-25T00:09:15.989Z,101219.28
2023-01-25T00:11:50.115Z,101226.47
2023-01-25T00:14:20.632Z,101238.88
2023-01-25T00:16:50.383Z,101233.25
2023-01-25T00:19:21.855Z,101229.56
2023-01-25T00:21:53.871Z,101232.00
2023-01-25T00:24:26.730Z,101233.13
2023-01-25T00:26:58.421Z,101227.16
2023-01-25T00:29:26.777Z,101228.56
2023-01-25T00:32:19.872Z,101226.69
2023-01-25T00:34:51.255Z,101227.09
2023-01-25T00:37:30.764Z,101230.63
2023-01-25T00:40:01.729Z,101237.16
2023-01-25T00:42:39.650Z,101237.81
2023-01-25T00:45:13.433Z,101236.59
2023-01-25T00:47:43.557Z,101241.59
2023-01-25T00:50:15.648Z,101244.66
2023-01-25T00:52:47.928Z,101250.16
2023-01-25T00:55:17.907Z,101245.59
2023-01-25T00:57:48.886Z,101251.09
2023-01-25T01:00:23.664Z,101251.63
2023-01-25T01:02:53.187Z,101254.47
2023-01-25T01:05:23.408Z,101251.06
2023-01-25T01:07:55.171Z,101241.25
2023-01-25T01:10:23.623Z,101234.91
2023-01-25T01:12:55.623Z,101246.88
2023-01-25T01:15:27.342Z,101233.59
2023-01-25T01:18:00.742Z,101240.19
2023-01-25T01:20:30.397Z,101242.69
2023-01-25T01:23:01.620Z,101238.78
2023-01-25T01:25:38.093Z,101239.13
2023-01-25T01:28:13.416Z,101237.16
2023-01-25T01:30:42.772Z,101236.53
2023-01-25T01:33:15.092Z,101241.47
2023-01-25T01:35:48.068Z,101243.53
2023-01-25T01:38:18.555Z,101248.25
2023-01-25T01:40:50.408Z,101241.53
2023-01-25T01:43:32.167Z,101239.75
2023-01-25T01:46:06.774Z,101238.88
2023-01-25T01:48:41.542Z,101253.09
2023-01-25T01:51:19.858Z,101231.75
2023-01-25T01:53:54.478Z,101226.31
2023-01-25T01:56:34.713Z,101229.22
2023-01-25T01:59:10.957Z,101244.22
2023-01-25T02:01:41.843Z,101216.97
2023-01-25T02:04:19.248Z,101225.25
2023-01-25T02:06:54.638Z,101226.53
2023-01-25T02:09:28.206Z,101231.97
2023-01-25T02:11:59.118Z,101227.47
2023-01-25T02:14:44.041Z,101233.13
2023-01-25T02:17:14.954Z,101229.50
2023-01-25T02:19:50.879Z,101234.50
2023-01-25T02:22:30.248Z,101245.53
2023-01-25T02:25:07.619Z,101240.00
2023-01-25T02:27:40.591Z,101230.19
2023-01-25T02:30:12.797Z,101228.03
2023-01-25T02:32:47.037Z,101231.94
2023-01-25T02:35:20.640Z,101230.53
2023-01-25T02:37:52.132Z,101216.38
2023-01-25T02:40:26.864Z,101217.59
2023-01-25T02:42:58.426Z,101220.72
2023-01-25T02:45:33.128Z,101217.03
2023-01-25T02:48:01.480Z,101215.41
2023-01-25T02:50:31.759Z,101216.38
2023-01-25T02:53:01.914Z,101209.09
2023-01-25T02:55:37.219Z,101214.78
2023-01-25T02:58:17.905Z,101202.91
2023-01-25T03:00:47.032Z,101208.19
2023-01-25T03:03:25.764Z,101191.81
2023-01-25T03:06:04.197Z,101190.31
2023-01-25T03:08:33.624Z,101191.41
2023-01-25T03:11:17.508Z,101190.03
2023-01-25T03:13:48.690Z,101190.13
2023-01-25T03:16:20.909Z,101187.22
2023-01-25T03:18:55.601Z,101173.69
2023-01-25T03:21:25.974Z,101173.19
2023-01-25T03:24:00.981Z,101167.78
2023-01-25T03:26:54.144Z,101163.75
2023-01-25T03:29:26.837Z,101163.44
2023-01-25T03:31:55.943Z,101169.50
2023-01-25T03:34:27.372Z,101159.88
2023-01-25T03:36:58.640Z,101137.66
2023-01-25T03:39:36.514Z,101153.94
2023-01-25T03:42:08.849Z,101149.59
2023-01-25T03:44:41.289Z,101148.59
2023-01-25T03:47:11.174Z,101147.72
2023-01-25T03:49:43.112Z,101146.53
2023-01-25T03:52:14.537Z,101144.44
2023-01-25T03:54:45.245Z,101144.69
2023-01-25T03:57:22.150Z,101141.88
2023-01-25T04:00:05.556Z,101144.31
2023-01-25T04:02:55.039Z,101138.78
2023-01-25T04:05:25.704Z,101133.38
2023-01-25T04:07:57.922Z,101136.03
2023-01-25T04:10:36.723Z,101137.41
2023-01-25T04:13:10.035Z,101141.81
2023-01-25T04:15:44.128Z,101141.16
2023-01-25T04:18:44.751Z,101143.19
2023-01-25T04:21:18.529Z,101141.38
2023-01-25T04:23:48.980Z,101139.03
2023-01-25T04:26:21.718Z,101129.47
2023-01-25T04:29:00.746Z,101138.19
2023-01-25T04:31:30.086Z,101140.50
2023-01-25T04:34:00.919Z,101130.78
2023-01-25T04:36:30.865Z,101126.91
2023-01-25T04:39:01.018Z,101130.88
2023-01-25T04:41:33.572Z,101121.13
2023-01-25T04:44:15.004Z,101121.06
2023-01-25T04:46:49.582Z,101117.47
2023-01-25T04:49:24.807Z,101118.22
2023-01-25T04:52:02.819Z,101108.44
2023-01-25T04:54:34.745Z,101114.25
2023-01-25T04:57:05.285Z,101115.69
2023-01-25T04:59:37.547Z,101120.59
2023-01-25T05:02:19.846Z,101120.28
2023-01-25T05:04:49.571Z,101120.09
2023-01-25T05:07:23.946Z,101123.34
2023-01-25T05:09:56.448Z,101127.03
2023-01-25T05:12:36.937Z,101127.41
2023-01-25T05:15:24.130Z,101122.19
2023-01-25T05:17:55.755Z,101130.97
2023-01-25T05:20:25.361Z,101131.31
2023-01-25T05:22:56.282Z,101116.72
2023-01-25T05:25:43.512Z,101121.88
2023-01-25T05:28:26.411Z,101132.44
2023-01-25T05:31:27.478Z,101140.84
2023-01-25T05:33:55.933Z,101137.09
2023-01-25T05:36:25.219Z,101124.66
2023-01-25T05:39:00.030Z,101133.91
2023-01-25T05:41:40.263Z,101140.41
2023-01-25T05:44:13.929Z,101141.22
2023-01-25T05:46:59.963Z,101137.59
2023-01-25T05:49:29.204Z,101139.41
2023-01-25T05:52:01.478Z,101132.31
2023-01-25T05:54:30.013Z,101148.31
2023-01-25T05:57:05.180Z,101144.69
2023-01-25T05:59:36.207Z,101142.34
2023-01-25T06:02:21.615Z,101151.44
2023-01-25T06:04:58.574Z,101143.84
2023-01-25T06:07:28.941Z,101145.28
2023-01-25T06:10:05.309Z,101144.03
2023-01-25T06:12:43.166Z,101147.41
2023-01-25T06:15:17.399Z,101153.50
2023-01-25T06:17:58.901Z,101150.97
2023-01-25T06:20:50.113Z,101153.72
2023-01-25T06:23:21.075Z,101144.56
2023-01-25T06:25:54.809Z,101150.34
2023-01-25T06:28:23.047Z,101150.63
2023-01-25T06:30:55.070Z,101150.97
2023-01-25T06:33:32.818Z,101142.81
2023-01-25T06:36:03.739Z,101138.81
2023-01-25T06:38:37.579Z,101134.84
2023-01-25T06:41:12.865Z,101140.53
2023-01-25T06:43:43.660Z,101137.91
2023-01-25T06:46:14.487Z,101135.13
2023-01-25T06:48:52.519Z,101140.28
2023-01-25T06:51:20.631Z,101137.41
2023-01-25T06:53:51.048Z,101139.06
2023-01-25T06:56:23.288Z,101126.00
2023-01-25T06:58:54.700Z,101134.44
2023-01-25T07:01:27.659Z,101137.16
2023-01-25T07:04:00.874Z,101133.91
2023-01-25T07:06:36.680Z,101129.97
2023-01-25T07:09:06.022Z,101130.22
2023-01-25T07:11:41.135Z,101128.13
2023-01-25T07:14:10.596Z,101119.78
2023-01-25T07:16:42.749Z,101129.09
2023-01-25T07:19:24.736Z,101126.22
2023-01-25T07:21:56.434Z,101125.75
2023-01-25T07:24:30.928Z,101131.16
2023-01-25T07:27:01.184Z,101130.28
2023-01-25T07:29:38.318Z,101126.81
2023-01-25T07:32:10.524Z,101125.25
2023-01-25T07:34:53.688Z,101135.19
2023-01-25T07:37:22.393Z,101137.94
2023-01-25T07:39:58.342Z,101139.66
2023-01-25T07:42:35.533Z,101139.41
2023-01-25T07:45:17.351Z,101128.56
2023-01-25T07:47:55.456Z,101128.56
2023-01-25T07:50:33.771Z,101131.03
2023-01-25T07:53:18.949Z,101133.47
2023-01-25T07:55:48.345Z,101121.59
2023-01-25T07:58:21.108Z,101118.81
2023-01-25T08:00:50.413Z,101126.28
2023-01-25T08:03:22.305Z,101126.94
2023-01-25T08:05:57.071Z,101131.22
2023-01-25T08:08:26.135Z,101120.59
2023-01-25T08:10:57.684Z,101125.78
2023-01-25T08:13:29.822Z,101125.94
2023-01-25T08:16:04.242Z,101123.09
2023-01-25T08:18:35.980Z,101123.22
2023-01-25T08:21:10.485Z,101118.91
2023-01-25T08:23:43.151Z,101117.19
2023-01-25T08:26:16.885Z,101122.34
2023-01-25T08:28:53.286Z,101111.03
2023-01-25T08:31:33.004Z,101118.75
2023-01-25T08:34:04.108Z,101118.81
2023-01-25T08:36:35.855Z,101112.03
2023-01-25T08:39:09.098Z,101105.00
2023-01-25T08:41:42.695Z,101110.41
2023-01-25T08:44:11.410Z,101105.19
2023-01-25T08:46:43.098Z,101110.25
2023-01-25T08:49:12.541Z,101096.34
2023-01-25T08:52:01.914Z,101105.72
2023-01-25T08:54:43.130Z,101109.84
2023-01-25T08:57:15.604Z,101100.78
2023-01-25T08:59:49.806Z,101106.91
2023-01-25T09:02:21.417Z,101105.56
2023-01-25T09:04:52.888Z,101095.50
2023-01-25T09:07:22.614Z,101100.91
2023-01-25T09:09:51.795Z,101093.66
2023-01-25T09:12:29.214Z,101094.50
2023-01-25T09:15:03.193Z,101104.50
2023-01-25T09:17:35.271Z,101112.09
2023-01-25T09:20:17.340Z,101100.53
2023-01-25T09:22:52.532Z,101105.41
2023-01-25T09:25:22.748Z,101090.88
2023-01-25T09:27:51.832Z,101094.84
2023-01-25T09:30:37.219Z,101091.63
2023-01-25T09:33:19.954Z,101096.16
2023-01-25T09:35:53.544Z,101078.09
2023-01-25T09:38:28.314Z,101070.66
2023-01-25T09:41:12.010Z,101074.50
2023-01-25T09:44:13.605Z,101073.25
2023-01-25T09:46:51.739Z,101072.13
2023-01-25T09:49:49.675Z,101064.59
2023-01-25T09:52:54.699Z,101069.56
2023-01-25T09:55:27.705Z,101063.84
2023-01-25T09:58:00.405Z,101047.06
2023-01-25T10:00:37.495Z,101063.97
2023-01-25T10:03:17.960Z,101051.78
2023-01-25T10:05:49.166Z,101056.44
2023-01-25T10:08:24.034Z,101042.59
2023-01-25T10:11:03.842Z,101041.31
2023-01-25T10:13:37.412Z,101041.34
2023-01-25T10:16:25.071Z,101029.00
2023-01-25T10:19:04.777Z,101024.13
2023-01-25T10:21:38.197Z,101010.44
2023-01-25T10:24:52.321Z,101014.28
2023-01-25T10:27:37.447Z,101025.81
2023-01-25T10:30:24.960Z,101013.56
2023-01-25T10:33:05.094Z,101012.13
2023-01-25T10:35:43.234Z,100995.78
2023-01-25T10:38:21.210Z,100996.84
2023-01-25T10:40:54.702Z,101002.69
2023-01-25T10:43:30.357Z,100999.81
2023-01-25T10:46:02.330Z,100993.28
2023-01-25T10:48:37.912Z,100984.59
2023-01-25T10:51:08.691Z,100987.59
2023-01-25T10:53:43.900Z,100990.13
2023-01-25T10:56:31.582Z,100975.34
2023-01-25T10:59:31.860Z,100977.41
2023-01-25T11:02:45.054Z,100976.72
2023-01-25T11:05:48.106Z,100971.44
2023-01-25T11:08:23.962Z,100956.06
2023-01-25T11:10:55.331Z,100955.75
2023-01-25T11:13:34.015Z,100948.81
2023-01-25T11:16:24.620Z,100948.16
2023-01-25T11:19:01.251Z,100937.31
2023-01-25T11:21:37.533Z,100947.03
2023-01-25T11:24:22.575Z,100953.91
2023-01-25T11:26:51.359Z,100943.09
2023-01-25T11:29:26.435Z,100938.00
2023-01-25T11:32:05.712Z,100941.91
2023-01-25T11:34:35.212Z,100923.03
2023-01-25T11:37:37.850Z,100927.56
2023-01-25T11:40:20.971Z,100917.84
2023-01-25T11:43:01.239Z,100914.78
2023-01-25T11:45:56.393Z,100911.81
2023-01-25T11:48:54.642Z,100894.63
2023-01-25T11:51:28.056Z,100885.16
2023-01-25T11:54:30.639Z,100888.53
2023-01-25T11:57:09.520Z,100883.25
2023-01-25T11:59:55.414Z,100874.59
2023-01-25T12:02:50.594Z,100877.50
2023-01-25T12:05:40.293Z,100877.84
2023-01-25T12:08:21.970Z,100869.59
2023-01-25T12:10:58.795Z,100858.75
2023-01-25T12:13:35.706Z,100847.44
2023-01-25T12:16:32.955Z,100851.50
2023-01-25T12:19:29.434Z,100845.75
2023-01-25T12:22:10.212Z,100844.31
2023-01-25T12:24:48.390Z,100840.69
2023-01-25T12:27:37.004Z,100842.72
2023-01-25T12:30:14.696Z,100828.25
2023-01-25T12:32:49.721Z,100828.03
2023-01-25T12:35:34.841Z,100819.16
2023-01-25T12:38:14.149Z,100808.78
2023-01-25T12:40:48.508Z,100807.78
2023-01-25T12:43:27.642Z,100809.47
2023-01-25T12:45:57.390Z,100807.44
2023-01-25T12:48:33.471Z,100801.91
2023-01-25T12:51:10.085Z,100799.88
2023-01-25T12:53:42.759Z,100791.94
2023-01-25T12:56:23.497Z,100784.88
2023-01-25T12:58:56.100Z,100788.84
2023-01-25T13:01:32.192Z,100780.81
2023-01-25T13:04:23.527Z,100783.09
2023-01-25T13:07:01.225Z,100779.44
2023-01-25T13:09:46.389Z,100774.22
2023-01-25T13:12:17.481Z,100772.66
2023-01-25T13:14:49.135Z,100770.50
2023-01-25T13:17:24.641Z,100762.13
2023-01-25T13:20:02.035Z,100760.41
2023-01-25T13:23:01.896Z,100752.50
2023-01-25T13:25:34.097Z,100759.97
2023-01-25T13:28:40.046Z,100749.75
2023-01-25T13:31:11.417Z,100739.00
2023-01-25T13:33:40.516Z,100740.06
2023-01-25T13:37:06.416Z,100740.41
2023-01-25T13:39:48.072Z,100730.31
2023-01-25T13:42:27.666Z,100739.22
2023-01-25T13:45:02.608Z,100722.25
2023-01-25T13:47:42.577Z,100724.31
2023-01-25T13:50:26.746Z,100729.00
2023-01-25T13:53:01.754Z,100723.44
2023-01-25T13:55:39.692Z,100715.03
2023-01-25T13:58:21.246Z,100717.19
2023-01-25T14:00:55.369Z,100730.31
2023-01-25T14:03:29.319Z,100731.59
2023-01-25T14:06:07.554Z,100725.59
2023-01-25T14:08:37.058Z,100724.19
2023-01-25T14:11:08.201Z,100720.88
2023-01-25T14:13:44.758Z,100717.75
2023-01-25T14:16:15.981Z,100725.72
2023-01-25T14:18:45.491Z,100718.44
2023-01-25T14:21:23.493Z,100711.75
2023-01-25T14:23:53.622Z,100719.31
2023-01-25T14:26:28.739Z,100730.31
2023-01-25T14:29:14.224Z,100733.84
2023-01-25T14:31:46.506Z,100736.16
2023-01-25T14:34:21.174Z,100730.81
2023-01-25T14:36:59.903Z,100737.56
2023-01-25T14:39:30.591Z,100728.88
2023-01-25T14:42:04.494Z,100727.88
2023-01-25T14:44:36.746Z,100722.56
2023-01-25T14:47:24.234Z,100719.66
2023-01-25T14:50:06.482Z,100723.91
2023-01-25T14:52:35.910Z,100724.38
2023-01-25T14:55:16.125Z,100721.59
2023-01-25T14:57:46.186Z,100718.22
2023-01-25T15:00:36.749Z,100725.13
2023-01-25T15:03:07.369Z,100717.81
2023-01-25T15:05:38.605Z,100719.44
2023-01-25T15:08:26.116Z,100714.09
2023-01-25T15:10:59.547Z,100710.91
2023-01-25T15:13:33.329Z,100701.25
2023-01-25T15:16:07.196Z,100697.25
2023-01-25T15:18:45.747Z,100717.09
2023-01-25T15:21:25.372Z,100712.97
2023-01-25T15:24:04.965Z,100706.88
2023-01-25T15:26:39.928Z,100703.41
2023-01-25T15:29:15.034Z,100698.34
2023-01-25T15:31:45.611Z,100700.94
2023-01-25T15:34:17.857Z,100698.47
2023-01-25T15:36:57.850Z,100680.84
2023-01-25T15:39:28.963Z,100694.97
2023-01-25T15:42:01.546Z,100693.63
2023-01-25T15:44:31.127Z,100692.00
2023-01-25T15:47:03.898Z,100694.97
2023-01-25T15:49:35.299Z,100693.22
2023-01-25T15:52:06.175Z,100687.66
2023-01-25T15:54:39.482Z,100692.88
2023-01-25T15:57:36.800Z,100697.31
2023-01-25T16:00:10.329Z,100690.03
2023-01-25T16:02:42.879Z,100688.81
2023-01-25T16:05:12.882Z,100673.94
2023-01-25T16:07:46.946Z,100684.91
2023-01-25T16:10:25.725Z,100675.16
2023-01-25T16:12:55.411Z,100680.72
2023-01-25T16:15:26.992Z,100682.25
2023-01-25T16:18:14.445Z,100682.19
2023-01-25T16:20:45.467Z,100672.38
2023-01-25T16:23:23.592Z,100683.03
2023-01-25T16:25:58.992Z,100680.47
2023-01-25T16:28:34.718Z,100677.00
2023-01-25T16:31:08.148Z,100671.69
2023-01-25T16:33:52.719Z,100672.44
2023-01-25T16:36:25.130Z,100673.72
2023-01-25T16:39:04.675Z,100659.06
2023-01-25T16:41:37.550Z,100660.97
2023-01-25T16:44:08.614Z,100662.91
2023-01-25T16:46:45.416Z,100652.13
2023-01-25T16:49:19.886Z,100653.41
2023-01-25T16:51:50.955Z,100646.56
2023-01-25T16:54:36.022Z,100646.31
2023-01-25T16:57:19.812Z,100651.56
2023-01-25T17:00:07.976Z,100645.28
2023-01-25T17:02:44.206Z,100644.06
2023-01-25T17:05:34.709Z,100637.59
2023-01-25T17:08:15.792Z,100647.88
2023-01-25T17:10:49.015Z,100643.03
2023-01-25T17:13:36.411Z,100642.31
2023-01-25T17:16:14.854Z,100632.31
2023-01-25T17:18:45.347Z,100626.34
2023-01-25T17:21:21.283Z,100637.19
2023-01-25T17:24:08.086Z,100627.63
2023-01-25T17:26:49.442Z,100626.66
2023-01-25T17:29:35.137Z,100622.31
2023-01-25T17:32:07.551Z,100622.28
2023-01-25T17:37:31.922Z,100613.53
2023-01-25T17:40:03.702Z,100613.84
2023-01-25T17:42:45.819Z,100604.25
2023-01-25T17:45:17.449Z,100604.06
2023-01-25T17:47:51.003Z,100604.81
2023-01-25T17:50:34.852Z,100601.63
2023-01-25T17:53:17.858Z,100595.81
2023-01-25T17:55:51.410Z,100603.25
2023-01-25T17:58:26.432Z,100585.94
2023-01-25T18:01:13.750Z,100586.44
2023-01-25T18:04:00.236Z,100589.88
2023-01-25T18:06:44.640Z,100580.63
2023-01-25T18:09:32.716Z,100586.50
2023-01-25T18:12:11.520Z,100583.09
2023-01-25T18:14:54.388Z,100579.75
2023-01-25T18:17:36.119Z,100579.03
2023-01-25T18:20:11.673Z,100578.56
2023-01-25T18:22:53.812Z,100572.78
2023-01-25T18:25:44.258Z,100569.69
2023-01-25T18:28:17.085Z,100565.56
2023-01-25T18:30:56.054Z,100559.72
2023-01-25T18:33:30.606Z,100558.84
2023-01-25T18:39:05.941Z,100557.09
2023-01-25T18:41:40.124Z,100553.03
2023-01-25T18:44:11.910Z,100549.81
2023-01-25T18:46:44.380Z,100547.63
2023-01-25T18:49:23.432Z,100545.94
2023-01-25T18:52:19.697Z,100545.94
2023-01-25T18:55:08.047Z,100540.28
2023-01-25T18:57:50.261Z,100541.13
2023-01-25T19:00:36.809Z,100536.03
2023-01-25T19:03:13.883Z,100531.16
2023-01-25T19:05:57.259Z,100523.34
2023-01-25T19:08:49.853Z,100526.28
2023-01-25T19:11:35.205Z,100522.19
2023-01-25T19:14:24.495Z,100510.03
2023-01-25T19:17:23.863Z,100514.88
2023-01-25T19:20:07.843Z,100511.44
2023-01-25T19:22:45.382Z,100503.75
2023-01-25T19:25:35.945Z,100494.50
2023-01-25T19:28:17.857Z,100489.88
2023-01-25T19:33:42.645Z,100481.03
2023-01-25T19:36:20.124Z,100481.59
2023-01-25T19:38:54.209Z,100478.03
2023-01-25T19:41:38.785Z,100480.38
2023-01-25T19:44:28.421Z,100472.16
2023-01-25T19:47:09.865Z,100477.69
2023-01-25T19:49:45.962Z,100477.28
2023-01-25T19:52:41.261Z,100472.69
2023-01-25T19:55:14.330Z,100466.09
2023-01-25T19:57:48.748Z,100466.50
2023-01-25T20:00:32.950Z,100455.47
2023-01-25T20:03:29.166Z,100452.63
2023-01-25T20:06:22.582Z,100438.28
2023-01-25T20:09:02.895Z,100440.69
2023-01-25T20:11:36.600Z,100427.28
2023-01-25T20:14:22.525Z,100434.56
2023-01-25T20:17:02.427Z,100432.75
2023-01-25T20:19:45.914Z,100422.69
2023-01-25T20:22:35.890Z,100424.34
2023-01-25T20:25:21.915Z,100418.25
2023-01-25T20:28:01.359Z,100415.50
2023-01-25T20:30:35.676Z,100415.34
2023-01-25T20:33:08.645Z,100407.66
2023-01-25T20:35:50.591Z,100406.69
2023-01-25T20:38:32.410Z,100405.41
2023-01-25T20:41:13.064Z,100396.19
2023-01-25T20:44:16.480Z,100399.69
2023-01-25T20:46:56.304Z,100393.69
2023-01-25T20:49:32.115Z,100394.00
2023-01-25T20:52:22.405Z,100391.09
2023-01-25T20:55:10.336Z,100387.75
2023-01-25T20:58:01.555Z,100388.47
2023-01-25T21:00:33.816Z,100389.72
2023-01-25T21:03:08.944Z,100383.53
2023-01-25T21:05:48.209Z,100383.31
2023-01-25T21:08:52.303Z,100370.66
2023-01-25T21:11:27.013Z,100371.84
2023-01-25T21:14:05.060Z,100377.78
2023-01-25T21:16:49.640Z,100364.78
2023-01-25T21:19:31.715Z,100359.56
2023-01-25T21:22:08.065Z,100355.75
2023-01-25T21:24:55.904Z,100359.56
2023-01-25T21:27:32.982Z,100348.13
2023-01-25T21:30:06.931Z,100359.34
2023-01-25T21:32:39.294Z,100355.16
2023-01-25T21:35:11.273Z,100356.00
2023-01-25T21:37:51.328Z,100349.75
2023-01-25T21:40:22.895Z,100350.88
2023-01-25T21:43:03.897Z,100347.13
2023-01-25T21:45:52.664Z,100340.31
2023-01-25T21:48:37.426Z,100344.63
2023-01-25T21:51:29.980Z,100338.63
2023-01-25T21:54:05.218Z,100333.06
2023-01-25T21:56:39.568Z,100326.56
2023-01-25T21:59:11.806Z,100326.72
2023-01-25T22:01:50.365Z,100329.47
2023-01-25T22:04:25.086Z,100335.84
2023-01-25T22:06:56.920Z,100321.44
2023-01-25T22:09:35.031Z,100325.75
2023-01-25T22:12:08.317Z,100327.69
2023-01-25T22:14:40.087Z,100318.50
2023-01-25T22:17:09.105Z,100314.44
2023-01-25T22:19:40.320Z,100326.25
2023-01-25T22:22:09.504Z,100321.78
2023-01-25T22:24:41.311Z,100314.56
2023-01-25T22:27:32.558Z,100325.59
2023-01-25T22:30:06.577Z,100313.78
2023-01-25T22:32:37.473Z,100303.38
2023-01-25T22:35:09.016Z,100301.25
2023-01-25T22:37:51.332Z,100301.97
2023-01-25T22:40:33.704Z,100293.19
2023-01-25T22:43:12.934Z,100285.66
2023-01-25T22:45:59.422Z,100284.38
2023-01-25T22:48:41.768Z,100286.84
2023-01-25T22:51:19.470Z,100270.81
2023-01-25T22:53:48.345Z,100271.19
2023-01-25T22:56:27.516Z,100268.75
2023-01-25T22:59:02.856Z,100251.06
2023-01-25T23:01:41.566Z,100266.88
2023-01-25T23:04:11.184Z,100260.50
2023-01-25T23:06:40.610Z,100255.09
2023-01-25T23:09:10.047Z,100257.06
2023-01-25T23:11:51.170Z,100258.59
2023-01-25T23:14:41.522Z,100257.88
2023-01-25T23:17:29.425Z,100255.00
2023-01-25T23:20:00.554Z,100251.47
2023-01-25T23:22:37.372Z,100253.84
2023-01-25T23:25:10.009Z,100255.75
2023-01-25T23:27:41.439Z,100248.72
2023-01-25T23:30:44.081Z,100250.56
2023-01-25T23:33:27.874Z,100246.09
2023-01-25T23:35:59.063Z,100252.41
2023-01-25T23:38:30.775Z,100245.50
2023-01-25T23:41:31.372Z,100245.94
2023-01-25T23:44:10.934Z,100241.84
2023-01-25T23:47:03.305Z,100243.31
2023-01-25T23:49:44.003Z,100229.09
2023-01-25T23:52:23.294Z,100229.50
2023-01-25T23:54:59.905Z,100216.53
2023-01-25T23:57:33.277Z,100219.56
